KBAD/BAD METAR and TAF weather

Enter ICAO airport designator
Station Type Date Time Source
KBAD METAR 2020/10/20 16:56 UTC NOAA

KBAD 201656Z 17009KT 10SM BKN012 24/20 A3007 RMK AO2A SLP184 T02440203


Station Type Date Time Source
KBAD Decoded METAR 2020/10/20 16:56 UTC NOAA

Barksdale Air Force Base, LA, United States (KBAD) 32-30N 093-40W
Oct 20, 2020 - 12:56 PM EDT / 2020.10.20 1656 UTC
Wind: from the S (170 degrees) at 10 MPH (9 KT):0
Visibility: 10 mile(s):0
Sky conditions: mostly cloudy
Temperature: 75.9 F (24.4 C)
Dew Point: 68.5 F (20.3 C)
Relative Humidity: 77%
Pressure (altimeter): 30.07 in. Hg (1018 hPa)
ob: KBAD 201656Z 17009KT 10SM BKN012 24/20 A3007 RMK AO2A SLP184 T02440203
cycle: 17

Station Type Date Time Source
KBAD TAF 2020/10/20 23:00 UTC NOAA

TAF
AMD KBAD 192300Z 1923/2024 18010KT 9999 VCSH BKN025 QNH2999INS
BECMG 1923/1924 16005KT 9999 -TSRA BKN045 QNH2999INS
BECMG 2000/2001 15004KT 9999 NSW OVC015 QNH3004INS
BECMG 2015/2016 18008KT 9999 BKN025 QNH2998INS TX29/2021Z TN20/2011Z

Example: see airport list